sensor_id;sensor_type;location;lat;lon;timestamp;temperature;humidity
75961;SHT30;64644;48.914;2.254;2023-07-09T00:01:13;27.61;57.43
75961;SHT30;64644;48.914;2.254;2023-07-09T00:03:39;27.58;57.51
75961;SHT30;64644;48.914;2.254;2023-07-09T00:06:04;27.56;57.53
75961;SHT30;64644;48.914;2.254;2023-07-09T00:08:31;27.51;57.57
75961;SHT30;64644;48.914;2.254;2023-07-09T00:10:57;27.48;57.64
75961;SHT30;64644;48.914;2.254;2023-07-09T00:13:26;27.46;57.80
75961;SHT30;64644;48.914;2.254;2023-07-09T00:15:53;27.45;57.91
75961;SHT30;64644;48.914;2.254;2023-07-09T00:18:20;27.39;58.05
75961;SHT30;64644;48.914;2.254;2023-07-09T00:20:45;27.39;57.91
75961;SHT30;64644;48.914;2.254;2023-07-09T00:23:13;27.37;58.14
75961;SHT30;64644;48.914;2.254;2023-07-09T00:25:39;27.34;58.09
75961;SHT30;64644;48.914;2.254;2023-07-09T00:28:21;27.31;58.28
75961;SHT30;64644;48.914;2.254;2023-07-09T00:30:47;27.28;58.48
75961;SHT30;64644;48.914;2.254;2023-07-09T00:33:15;27.31;58.50
75961;SHT30;64644;48.914;2.254;2023-07-09T00:35:46;27.26;58.38
75961;SHT30;64644;48.914;2.254;2023-07-09T00:38:18;27.21;58.47
75961;SHT30;64644;48.914;2.254;2023-07-09T00:40:48;27.18;58.54
75961;SHT30;64644;48.914;2.254;2023-07-09T00:43:22;27.12;58.71
75961;SHT30;64644;48.914;2.254;2023-07-09T00:46:10;27.10;59.03
75961;SHT30;64644;48.914;2.254;2023-07-09T00:48:36;27.04;59.04
75961;SHT30;64644;48.914;2.254;2023-07-09T00:51:14;27.04;58.83
75961;SHT30;64644;48.914;2.254;2023-07-09T00:53:41;27.01;59.21
75961;SHT30;64644;48.914;2.254;2023-07-09T00:56:13;27.01;59.37
75961;SHT30;64644;48.914;2.254;2023-07-09T00:58:40;27.00;59.31
75961;SHT30;64644;48.914;2.254;2023-07-09T01:01:14;26.97;59.20
75961;SHT30;64644;48.914;2.254;2023-07-09T01:03:45;26.93;59.42
75961;SHT30;64644;48.914;2.254;2023-07-09T01:06:12;26.94;59.63
75961;SHT30;64644;48.914;2.254;2023-07-09T01:08:40;26.89;59.72
75961;SHT30;64644;48.914;2.254;2023-07-09T01:11:17;26.89;59.80
75961;SHT30;64644;48.914;2.254;2023-07-09T01:13:49;26.89;59.86
75961;SHT30;64644;48.914;2.254;2023-07-09T01:16:17;26.87;59.84
75961;SHT30;64644;48.914;2.254;2023-07-09T01:18:43;26.84;59.71
75961;SHT30;64644;48.914;2.254;2023-07-09T01:21:09;26.79;59.86
75961;SHT30;64644;48.914;2.254;2023-07-09T01:23:43;26.78;59.89
75961;SHT30;64644;48.914;2.254;2023-07-09T01:26:21;26.76;60.14
75961;SHT30;64644;48.914;2.254;2023-07-09T01:28:47;26.75;60.39
75961;SHT30;64644;48.914;2.254;2023-07-09T01:31:14;26.72;60.32
75961;SHT30;64644;48.914;2.254;2023-07-09T01:33:41;26.69;60.22
75961;SHT30;64644;48.914;2.254;2023-07-09T01:36:12;26.68;60.51
75961;SHT30;64644;48.914;2.254;2023-07-09T01:38:39;26.69;60.64
75961;SHT30;64644;48.914;2.254;2023-07-09T01:41:05;26.66;60.62
75961;SHT30;64644;48.914;2.254;2023-07-09T01:43:32;26.69;60.70
75961;SHT30;64644;48.914;2.254;2023-07-09T01:45:57;26.66;60.84
75961;SHT30;64644;48.914;2.254;2023-07-09T01:48:24;26.65;60.92
75961;SHT30;64644;48.914;2.254;2023-07-09T01:50:51;26.66;60.97
75961;SHT30;64644;48.914;2.254;2023-07-09T01:53:22;26.63;60.81
75961;SHT30;64644;48.914;2.254;2023-07-09T01:55:51;26.60;61.00
75961;SHT30;64644;48.914;2.254;2023-07-09T01:58:19;26.59;60.86
75961;SHT30;64644;48.914;2.254;2023-07-09T02:00:50;26.55;60.99
75961;SHT30;64644;48.914;2.254;2023-07-09T02:03:16;26.51;61.16
75961;SHT30;64644;48.914;2.254;2023-07-09T02:05:43;26.48;61.11
75961;SHT30;64644;48.914;2.254;2023-07-09T02:08:08;26.45;61.16
75961;SHT30;64644;48.914;2.254;2023-07-09T02:10:33;26.44;61.42
75961;SHT30;64644;48.914;2.254;2023-07-09T02:12:59;26.42;61.43
75961;SHT30;64644;48.914;2.254;2023-07-09T02:15:24;26.37;61.58
75961;SHT30;64644;48.914;2.254;2023-07-09T02:17:49;26.35;61.65
75961;SHT30;64644;48.914;2.254;2023-07-09T02:20:17;26.31;61.68
75961;SHT30;64644;48.914;2.254;2023-07-09T02:22:44;26.28;61.84
75961;SHT30;64644;48.914;2.254;2023-07-09T02:25:10;26.30;61.96
75961;SHT30;64644;48.914;2.254;2023-07-09T02:27:36;26.27;61.92
75961;SHT30;64644;48.914;2.254;2023-07-09T02:30:03;26.25;62.01
75961;SHT30;64644;48.914;2.254;2023-07-09T02:32:28;26.21;61.89
75961;SHT30;64644;48.914;2.254;2023-07-09T02:34:55;26.20;62.11
75961;SHT30;64644;48.914;2.254;2023-07-09T02:37:25;26.18;62.07
75961;SHT30;64644;48.914;2.254;2023-07-09T02:39:51;26.17;62.09
75961;SHT30;64644;48.914;2.254;2023-07-09T02:42:18;26.11;62.00
75961;SHT30;64644;48.914;2.254;2023-07-09T02:44:44;26.07;62.16
75961;SHT30;64644;48.914;2.254;2023-07-09T02:47:11;26.03;62.33
75961;SHT30;64644;48.914;2.254;2023-07-09T02:49:37;26.01;62.30
75961;SHT30;64644;48.914;2.254;2023-07-09T02:52:03;25.98;62.51
75961;SHT30;64644;48.914;2.254;2023-07-09T02:54:29;26.00;62.30
75961;SHT30;64644;48.914;2.254;2023-07-09T02:56:55;26.00;62.41
75961;SHT30;64644;48.914;2.254;2023-07-09T02:59:20;25.96;62.26
75961;SHT30;64644;48.914;2.254;2023-07-09T03:01:46;25.90;62.47
75961;SHT30;64644;48.914;2.254;2023-07-09T03:04:15;25.90;62.56
75961;SHT30;64644;48.914;2.254;2023-07-09T03:06:41;25.90;62.72
75961;SHT30;64644;48.914;2.254;2023-07-09T03:09:06;25.86;62.66
75961;SHT30;64644;48.914;2.254;2023-07-09T03:11:34;25.86;62.67
75961;SHT30;64644;48.914;2.254;2023-07-09T03:14:00;25.83;62.41
75961;SHT30;64644;48.914;2.254;2023-07-09T03:16:28;25.79;62.71
75961;SHT30;64644;48.914;2.254;2023-07-09T03:18:53;25.79;62.86
75961;SHT30;64644;48.914;2.254;2023-07-09T03:21:20;25.73;62.88
75961;SHT30;64644;48.914;2.254;2023-07-09T03:23:45;25.75;62.64
75961;SHT30;64644;48.914;2.254;2023-07-09T03:26:11;25.69;63.03
75961;SHT30;64644;48.914;2.254;2023-07-09T03:28:36;25.72;62.99
75961;SHT30;64644;48.914;2.254;2023-07-09T03:31:01;25.68;62.82
75961;SHT30;64644;48.914;2.254;2023-07-09T03:33:27;25.62;62.98
75961;SHT30;64644;48.914;2.254;2023-07-09T03:35:53;25.62;63.15
75961;SHT30;64644;48.914;2.254;2023-07-09T03:38:19;25.63;63.28
75961;SHT30;64644;48.914;2.254;2023-07-09T03:40:45;25.65;63.06
75961;SHT30;64644;48.914;2.254;2023-07-09T03:43:10;25.59;63.05
75961;SHT30;64644;48.914;2.254;2023-07-09T03:45:37;25.58;63.20
75961;SHT30;64644;48.914;2.254;2023-07-09T03:48:04;25.55;63.09
75961;SHT30;64644;48.914;2.254;2023-07-09T03:50:30;25.55;63.31
75961;SHT30;64644;48.914;2.254;2023-07-09T03:52:56;25.52;63.35
75961;SHT30;64644;48.914;2.254;2023-07-09T03:55:22;25.52;63.43
75961;SHT30;64644;48.914;2.254;2023-07-09T03:57:47;25.49;63.39
75961;SHT30;64644;48.914;2.254;2023-07-09T04:00:13;25.52;63.42
75961;SHT30;64644;48.914;2.254;2023-07-09T04:02:40;25.51;63.27
75961;SHT30;64644;48.914;2.254;2023-07-09T04:05:06;25.45;63.37
75961;SHT30;64644;48.914;2.254;2023-07-09T04:07:34;25.46;63.42
75961;SHT30;64644;48.914;2.254;2023-07-09T04:09:59;25.46;63.41
75961;SHT30;64644;48.914;2.254;2023-07-09T04:12:24;25.48;63.39
75961;SHT30;64644;48.914;2.254;2023-07-09T04:14:50;25.44;63.42
75961;SHT30;64644;48.914;2.254;2023-07-09T04:17:15;25.42;63.15
75961;SHT30;64644;48.914;2.254;2023-07-09T04:19:41;25.42;63.26
75961;SHT30;64644;48.914;2.254;2023-07-09T04:22:06;25.44;63.31
75961;SHT30;64644;48.914;2.254;2023-07-09T04:24:32;25.39;63.25
75961;SHT30;64644;48.914;2.254;2023-07-09T04:26:58;25.42;63.04
75961;SHT30;64644;48.914;2.254;2023-07-09T04:29:29;25.37;63.14
75961;SHT30;64644;48.914;2.254;2023-07-09T04:31:54;25.37;63.13
75961;SHT30;64644;48.914;2.254;2023-07-09T04:34:19;25.37;63.06
75961;SHT30;64644;48.914;2.254;2023-07-09T04:36:45;25.39;62.98
75961;SHT30;64644;48.914;2.254;2023-07-09T04:39:10;25.39;63.06
75961;SHT30;64644;48.914;2.254;2023-07-09T04:41:35;25.41;62.93
75961;SHT30;64644;48.914;2.254;2023-07-09T04:44:01;25.38;62.90
75961;SHT30;64644;48.914;2.254;2023-07-09T04:46:26;25.39;62.84
75961;SHT30;64644;48.914;2.254;2023-07-09T04:48:51;25.38;62.83
75961;SHT30;64644;48.914;2.254;2023-07-09T04:51:17;25.41;62.63
75961;SHT30;64644;48.914;2.254;2023-07-09T04:53:43;25.38;62.62
75961;SHT30;64644;48.914;2.254;2023-07-09T04:56:08;25.38;62.75
75961;SHT30;64644;48.914;2.254;2023-07-09T04:58:35;25.38;62.83
75961;SHT30;64644;48.914;2.254;2023-07-09T05:01:00;25.38;62.74
75961;SHT30;64644;48.914;2.254;2023-07-09T05:03:26;25.38;62.60
75961;SHT30;64644;48.914;2.254;2023-07-09T05:05:51;25.37;62.60
75961;SHT30;64644;48.914;2.254;2023-07-09T05:08:17;25.39;62.57
75961;SHT30;64644;48.914;2.254;2023-07-09T05:10:47;25.41;62.28
75961;SHT30;64644;48.914;2.254;2023-07-09T05:13:15;25.38;62.42
75961;SHT30;64644;48.914;2.254;2023-07-09T05:15:42;25.37;62.63
75961;SHT30;64644;48.914;2.254;2023-07-09T05:18:08;25.38;62.71
75961;SHT30;64644;48.914;2.254;2023-07-09T05:20:34;25.39;62.75
75961;SHT30;64644;48.914;2.254;2023-07-09T05:23:00;25.42;62.64
75961;SHT30;64644;48.914;2.254;2023-07-09T05:25:25;25.48;62.48
75961;SHT30;64644;48.914;2.254;2023-07-09T05:27:50;25.46;62.27
75961;SHT30;64644;48.914;2.254;2023-07-09T05:30:17;25.51;62.32
75961;SHT30;64644;48.914;2.254;2023-07-09T05:32:42;25.46;62.27
75961;SHT30;64644;48.914;2.254;2023-07-09T05:35:08;25.49;62.35
75961;SHT30;64644;48.914;2.254;2023-07-09T05:37:34;25.52;62.25
75961;SHT30;64644;48.914;2.254;2023-07-09T05:39:59;25.53;61.97
75961;SHT30;64644;48.914;2.254;2023-07-09T05:42:25;25.52;62.05
75961;SHT30;64644;48.914;2.254;2023-07-09T05:44:51;25.57;62.14
75961;SHT30;64644;48.914;2.254;2023-07-09T05:47:16;25.58;62.25
75961;SHT30;64644;48.914;2.254;2023-07-09T05:49:42;25.65;62.16
75961;SHT30;64644;48.914;2.254;2023-07-09T05:52:07;25.69;62.19
75961;SHT30;64644;48.914;2.254;2023-07-09T05:54:33;25.73;61.75
75961;SHT30;64644;48.914;2.254;2023-07-09T05:56:58;25.73;61.70
75961;SHT30;64644;48.914;2.254;2023-07-09T05:59:24;25.80;61.82
75961;SHT30;64644;48.914;2.254;2023-07-09T06:01:49;25.86;61.98
75961;SHT30;64644;48.914;2.254;2023-07-09T06:04:14;25.92;61.54
75961;SHT30;64644;48.914;2.254;2023-07-09T06:06:41;25.96;61.38
75961;SHT30;64644;48.914;2.254;2023-07-09T06:09:07;26.01;61.24
75961;SHT30;64644;48.914;2.254;2023-07-09T06:11:33;26.08;61.10
75961;SHT30;64644;48.914;2.254;2023-07-09T06:13:59;26.13;60.92
75961;SHT30;64644;48.914;2.254;2023-07-09T06:16:25;26.18;60.78
75961;SHT30;64644;48.914;2.254;2023-07-09T06:18:50;26.18;60.85
75961;SHT30;64644;48.914;2.254;2023-07-09T06:21:15;26.20;60.78
75961;SHT30;64644;48.914;2.254;2023-07-09T06:23:41;26.27;60.52
75961;SHT30;64644;48.914;2.254;2023-07-09T06:26:06;26.28;60.46
75961;SHT30;64644;48.914;2.254;2023-07-09T06:28:32;26.34;60.25
75961;SHT30;64644;48.914;2.254;2023-07-09T06:30:57;26.35;60.02
75961;SHT30;64644;48.914;2.254;2023-07-09T06:33:24;26.31;59.99
75961;SHT30;64644;48.914;2.254;2023-07-09T06:35:52;26.35;60.33
75961;SHT30;64644;48.914;2.254;2023-07-09T06:38:18;26.39;60.19
75961;SHT30;64644;48.914;2.254;2023-07-09T06:40:44;26.41;59.82
75961;SHT30;64644;48.914;2.254;2023-07-09T06:43:10;26.44;59.89
75961;SHT30;64644;48.914;2.254;2023-07-09T06:45:36;26.44;60.02
75961;SHT30;64644;48.914;2.254;2023-07-09T06:48:02;26.45;60.14
75961;SHT30;64644;48.914;2.254;2023-07-09T06:50:27;26.48;60.25
75961;SHT30;64644;48.914;2.254;2023-07-09T06:52:53;26.48;60.05
75961;SHT30;64644;48.914;2.254;2023-07-09T06:55:19;26.48;60.02
75961;SHT30;64644;48.914;2.254;2023-07-09T06:57:44;26.53;59.94
75961;SHT30;64644;48.914;2.254;2023-07-09T07:00:10;26.52;59.85
75961;SHT30;64644;48.914;2.254;2023-07-09T07:02:36;26.48;59.58
75961;SHT30;64644;48.914;2.254;2023-07-09T07:05:02;26.48;59.59
75961;SHT30;64644;48.914;2.254;2023-07-09T07:07:27;26.49;59.83
75961;SHT30;64644;48.914;2.254;2023-07-09T07:09:53;26.55;60.05
75961;SHT30;64644;48.914;2.254;2023-07-09T07:12:27;26.53;60.17
75961;SHT30;64644;48.914;2.254;2023-07-09T07:14:54;26.56;59.81
75961;SHT30;64644;48.914;2.254;2023-07-09T07:17:19;26.59;59.60
75961;SHT30;64644;48.914;2.254;2023-07-09T07:19:45;26.66;59.70
75961;SHT30;64644;48.914;2.254;2023-07-09T07:22:11;26.71;59.53
75961;SHT30;64644;48.914;2.254;2023-07-09T07:24:36;26.75;59.56
75961;SHT30;64644;48.914;2.254;2023-07-09T07:27:01;26.73;59.38
75961;SHT30;64644;48.914;2.254;2023-07-09T07:29:27;26.76;59.36
75961;SHT30;64644;48.914;2.254;2023-07-09T07:31:54;26.75;59.20
75961;SHT30;64644;48.914;2.254;2023-07-09T07:34:20;26.69;59.30
75961;SHT30;64644;48.914;2.254;2023-07-09T07:36:45;26.69;59.37
75961;SHT30;64644;48.914;2.254;2023-07-09T07:39:10;26.68;59.39
75961;SHT30;64644;48.914;2.254;2023-07-09T07:41:36;26.63;59.34
75961;SHT30;64644;48.914;2.254;2023-07-09T07:44:01;26.58;59.32
75961;SHT30;64644;48.914;2.254;2023-07-09T07:46:27;26.55;59.27
75961;SHT30;64644;48.914;2.254;2023-07-09T07:48:54;26.53;59.39
75961;SHT30;64644;48.914;2.254;2023-07-09T07:51:19;26.47;59.34
75961;SHT30;64644;48.914;2.254;2023-07-09T07:53:47;26.42;59.24
75961;SHT30;64644;48.914;2.254;2023-07-09T07:56:14;26.37;59.23
75961;SHT30;64644;48.914;2.254;2023-07-09T07:58:40;26.32;59.21
75961;SHT30;64644;48.914;2.254;2023-07-09T08:01:05;26.30;59.08
75961;SHT30;64644;48.914;2.254;2023-07-09T08:03:30;26.24;58.94
75961;SHT30;64644;48.914;2.254;2023-07-09T08:05:56;26.22;58.92
75961;SHT30;64644;48.914;2.254;2023-07-09T08:08:21;26.21;58.92
75961;SHT30;64644;48.914;2.254;2023-07-09T08:10:47;26.20;59.14
75961;SHT30;64644;48.914;2.254;2023-07-09T08:13:12;26.14;59.01
75961;SHT30;64644;48.914;2.254;2023-07-09T08:15:38;26.14;59.27
75961;SHT30;64644;48.914;2.254;2023-07-09T08:18:04;26.13;59.50
75961;SHT30;64644;48.914;2.254;2023-07-09T08:20:29;26.10;59.61
75961;SHT30;64644;48.914;2.254;2023-07-09T08:22:55;26.11;59.79
75961;SHT30;64644;48.914;2.254;2023-07-09T08:25:20;26.08;59.69
75961;SHT30;64644;48.914;2.254;2023-07-09T08:27:45;26.00;59.52
75961;SHT30;64644;48.914;2.254;2023-07-09T08:30:11;25.97;59.84
75961;SHT30;64644;48.914;2.254;2023-07-09T08:32:36;25.97;60.22
75961;SHT30;64644;48.914;2.254;2023-07-09T08:35:02;25.98;60.44
75961;SHT30;64644;48.914;2.254;2023-07-09T08:37:28;26.04;60.43
75961;SHT30;64644;48.914;2.254;2023-07-09T08:39:53;26.05;60.20
75961;SHT30;64644;48.914;2.254;2023-07-09T08:42:34;26.16;60.42
75961;SHT30;64644;48.914;2.254;2023-07-09T08:45:24;26.18;60.45
75961;SHT30;64644;48.914;2.254;2023-07-09T08:47:59;26.24;60.47
75961;SHT30;64644;48.914;2.254;2023-07-09T08:50:40;26.28;60.57
75961;SHT30;64644;48.914;2.254;2023-07-09T08:53:14;26.28;60.85
75961;SHT30;64644;48.914;2.254;2023-07-09T08:55:44;26.28;60.71
75961;SHT30;64644;48.914;2.254;2023-07-09T08:58:24;26.30;60.72
75961;SHT30;64644;48.914;2.254;2023-07-09T09:00:59;26.30;60.69
75961;SHT30;64644;48.914;2.254;2023-07-09T09:03:45;26.31;60.95
75961;SHT30;64644;48.914;2.254;2023-07-09T09:11:45;26.25;61.04
75961;SHT30;64644;48.914;2.254;2023-07-09T09:14:37;26.27;61.01
75961;SHT30;64644;48.914;2.254;2023-07-09T09:17:11;26.25;61.05
75961;SHT30;64644;48.914;2.254;2023-07-09T09:19:45;26.25;60.95
75961;SHT30;64644;48.914;2.254;2023-07-09T09:22:13;26.22;60.90
75961;SHT30;64644;48.914;2.254;2023-07-09T09:27:38;26.17;60.83
75961;SHT30;64644;48.914;2.254;2023-07-09T09:30:04;26.14;60.87
75961;SHT30;64644;48.914;2.254;2023-07-09T09:32:39;26.14;60.87
75961;SHT30;64644;48.914;2.254;2023-07-09T09:35:16;26.17;60.98
75961;SHT30;64644;48.914;2.254;2023-07-09T09:37:49;26.21;61.16
75961;SHT30;64644;48.914;2.254;2023-07-09T09:40:18;26.24;61.32
75961;SHT30;64644;48.914;2.254;2023-07-09T09:42:47;26.21;60.89
75961;SHT30;64644;48.914;2.254;2023-07-09T09:45:15;26.25;60.66
75961;SHT30;64644;48.914;2.254;2023-07-09T09:47:43;26.22;60.31
75961;SHT30;64644;48.914;2.254;2023-07-09T09:50:13;26.24;60.33
75961;SHT30;64644;48.914;2.254;2023-07-09T09:52:39;26.24;60.48
75961;SHT30;64644;48.914;2.254;2023-07-09T09:55:17;26.27;60.64
75961;SHT30;64644;48.914;2.254;2023-07-09T09:57:51;26.27;60.80
75961;SHT30;64644;48.914;2.254;2023-07-09T10:00:18;26.25;61.03
75961;SHT30;64644;48.914;2.254;2023-07-09T10:02:46;26.27;61.54
75961;SHT30;64644;48.914;2.254;2023-07-09T10:05:13;26.28;61.50
75961;SHT30;64644;48.914;2.254;2023-07-09T10:08:00;26.25;61.49
75961;SHT30;64644;48.914;2.254;2023-07-09T10:10:30;26.21;61.69
75961;SHT30;64644;48.914;2.254;2023-07-09T10:13:22;26.24;61.73
75961;SHT30;64644;48.914;2.254;2023-07-09T10:16:14;26.24;61.84
75961;SHT30;64644;48.914;2.254;2023-07-09T10:18:57;26.27;61.92
75961;SHT30;64644;48.914;2.254;2023-07-09T10:22:04;26.25;62.10
75961;SHT30;64644;48.914;2.254;2023-07-09T10:28:03;26.27;62.74
75961;SHT30;64644;48.914;2.254;2023-07-09T10:30:40;26.31;63.03
75961;SHT30;64644;48.914;2.254;2023-07-09T10:33:16;26.35;63.06
75961;SHT30;64644;48.914;2.254;2023-07-09T10:41:00;26.53;62.76
75961;SHT30;64644;48.914;2.254;2023-07-09T10:43:57;26.56;62.69
75961;SHT30;64644;48.914;2.254;2023-07-09T10:46:27;26.60;62.66
75961;SHT30;64644;48.914;2.254;2023-07-09T10:48:54;26.66;62.57
75961;SHT30;64644;48.914;2.254;2023-07-09T10:51:36;26.80;62.58
75961;SHT30;64644;48.914;2.254;2023-07-09T10:56:34;26.87;62.05
75961;SHT30;64644;48.914;2.254;2023-07-09T10:59:04;27.04;62.19
75961;SHT30;64644;48.914;2.254;2023-07-09T11:01:43;27.26;62.29
75961;SHT30;64644;48.914;2.254;2023-07-09T11:04:32;27.54;61.55
75961;SHT30;64644;48.914;2.254;2023-07-09T11:07:03;27.70;60.84
75961;SHT30;64644;48.914;2.254;2023-07-09T11:12:01;28.01;60.90
75961;SHT30;64644;48.914;2.254;2023-07-09T11:14:41;28.11;60.29
75961;SHT30;64644;48.914;2.254;2023-07-09T11:17:15;28.13;60.06
75961;SHT30;64644;48.914;2.254;2023-07-09T11:19:45;28.07;59.45
75961;SHT30;64644;48.914;2.254;2023-07-09T11:27:18;28.33;59.45
75961;SHT30;64644;48.914;2.254;2023-07-09T11:29:48;28.51;59.29
75961;SHT30;64644;48.914;2.254;2023-07-09T11:32:22;28.70;58.73
75961;SHT30;64644;48.914;2.254;2023-07-09T11:34:47;28.83;58.22
75961;SHT30;64644;48.914;2.254;2023-07-09T11:37:14;28.99;57.91
75961;SHT30;64644;48.914;2.254;2023-07-09T11:42:24;29.24;57.01
75961;SHT30;64644;48.914;2.254;2023-07-09T11:44:56;29.34;56.71
75961;SHT30;64644;48.914;2.254;2023-07-09T11:47:29;29.39;56.28
75961;SHT30;64644;48.914;2.254;2023-07-09T11:50:07;29.51;55.84
75961;SHT30;64644;48.914;2.254;2023-07-09T11:52:43;29.55;55.57
75961;SHT30;64644;48.914;2.254;2023-07-09T11:55:31;29.61;55.18
75961;SHT30;64644;48.914;2.254;2023-07-09T11:58:03;29.72;55.19
75961;SHT30;64644;48.914;2.254;2023-07-09T12:00:41;29.83;54.77
75961;SHT30;64644;48.914;2.254;2023-07-09T12:03:14;29.96;54.93
75961;SHT30;64644;48.914;2.254;2023-07-09T12:05:51;30.04;54.18
75961;SHT30;64644;48.914;2.254;2023-07-09T12:08:17;30.09;53.99
75961;SHT30;64644;48.914;2.254;2023-07-09T12:10:44;30.17;54.00
75961;SHT30;64644;48.914;2.254;2023-07-09T12:13:11;30.28;53.85
75961;SHT30;64644;48.914;2.254;2023-07-09T12:15:38;30.37;53.48
75961;SHT30;64644;48.914;2.254;2023-07-09T12:18:11;30.51;53.25
75961;SHT30;64644;48.914;2.254;2023-07-09T12:20:37;30.62;53.26
75961;SHT30;64644;48.914;2.254;2023-07-09T12:23:22;30.73;52.63
75961;SHT30;64644;48.914;2.254;2023-07-09T12:25:51;30.82;51.75
75961;SHT30;64644;48.914;2.254;2023-07-09T12:28:18;30.92;51.76
75961;SHT30;64644;48.914;2.254;2023-07-09T12:30:46;31.00;51.64
75961;SHT30;64644;48.914;2.254;2023-07-09T12:33:16;31.09;51.74
75961;SHT30;64644;48.914;2.254;2023-07-09T12:35:42;31.16;51.83
75961;SHT30;64644;48.914;2.254;2023-07-09T12:38:21;31.31;51.31
75961;SHT30;64644;48.914;2.254;2023-07-09T12:40:48;31.39;51.30
75961;SHT30;64644;48.914;2.254;2023-07-09T12:43:18;31.51;51.29
75961;SHT30;64644;48.914;2.254;2023-07-09T12:45:45;31.55;50.66
75961;SHT30;64644;48.914;2.254;2023-07-09T12:48:12;31.62;50.67
75961;SHT30;64644;48.914;2.254;2023-07-09T12:50:39;31.65;50.06
75961;SHT30;64644;48.914;2.254;2023-07-09T12:53:18;31.71;50.33
75961;SHT30;64644;48.914;2.254;2023-07-09T12:55:46;31.76;50.14
75961;SHT30;64644;48.914;2.254;2023-07-09T12:58:25;31.73;49.56
75961;SHT30;64644;48.914;2.254;2023-07-09T13:00:53;31.79;49.46
75961;SHT30;64644;48.914;2.254;2023-07-09T13:03:28;31.80;48.84
75961;SHT30;64644;48.914;2.254;2023-07-09T13:08:20;31.89;49.19
75961;SHT30;64644;48.914;2.254;2023-07-09T13:10:46;31.88;49.05
75961;SHT30;64644;48.914;2.254;2023-07-09T13:13:15;31.82;48.42
75961;SHT30;64644;48.914;2.254;2023-07-09T13:15:43;31.82;48.57
75961;SHT30;64644;48.914;2.254;2023-07-09T13:18:11;31.83;48.61
75961;SHT30;64644;48.914;2.254;2023-07-09T13:20:39;31.78;48.28
75961;SHT30;64644;48.914;2.254;2023-07-09T13:23:10;31.72;48.32
75961;SHT30;64644;48.914;2.254;2023-07-09T13:25:39;31.71;49.33
75961;SHT30;64644;48.914;2.254;2023-07-09T13:28:04;31.72;48.66
75961;SHT30;64644;48.914;2.254;2023-07-09T13:30:29;31.76;48.92
75961;SHT30;64644;48.914;2.254;2023-07-09T13:32:57;31.82;48.42
75961;SHT30;64644;48.914;2.254;2023-07-09T13:35:22;31.93;48.81
75961;SHT30;64644;48.914;2.254;2023-07-09T13:37:47;32.07;47.89
75961;SHT30;64644;48.914;2.254;2023-07-09T13:40:15;32.06;47.73
75961;SHT30;64644;48.914;2.254;2023-07-09T13:42:42;32.07;47.68
75961;SHT30;64644;48.914;2.254;2023-07-09T13:45:23;32.02;47.94
75961;SHT30;64644;48.914;2.254;2023-07-09T13:47:50;31.86;47.58
75961;SHT30;64644;48.914;2.254;2023-07-09T13:50:17;31.66;47.53
75961;SHT30;64644;48.914;2.254;2023-07-09T13:52:44;31.51;47.48
75961;SHT30;64644;48.914;2.254;2023-07-09T13:55:21;31.34;47.52
75961;SHT30;64644;48.914;2.254;2023-07-09T13:57:48;31.23;47.76
75961;SHT30;64644;48.914;2.254;2023-07-09T14:00:14;31.10;48.20
75961;SHT30;64644;48.914;2.254;2023-07-09T14:02:40;30.97;48.31
75961;SHT30;64644;48.914;2.254;2023-07-09T14:05:11;30.84;49.24
75961;SHT30;64644;48.914;2.254;2023-07-09T14:07:40;30.75;49.36
75961;SHT30;64644;48.914;2.254;2023-07-09T14:10:10;30.69;49.66
75961;SHT30;64644;48.914;2.254;2023-07-09T14:12:39;30.62;49.72
75961;SHT30;64644;48.914;2.254;2023-07-09T14:15:14;30.56;49.87
75961;SHT30;64644;48.914;2.254;2023-07-09T14:17:40;30.42;49.62
75961;SHT30;64644;48.914;2.254;2023-07-09T14:20:07;30.32;49.80
75961;SHT30;64644;48.914;2.254;2023-07-09T14:22:35;30.27;50.37
75961;SHT30;64644;48.914;2.254;2023-07-09T14:25:02;30.21;49.67
75961;SHT30;64644;48.914;2.254;2023-07-09T14:27:28;30.14;49.92
75961;SHT30;64644;48.914;2.254;2023-07-09T14:29:54;30.11;50.64
75961;SHT30;64644;48.914;2.254;2023-07-09T14:34:57;30.02;50.37
75961;SHT30;64644;48.914;2.254;2023-07-09T14:37:22;29.94;50.76
75961;SHT30;64644;48.914;2.254;2023-07-09T14:39:47;29.87;50.94
75961;SHT30;64644;48.914;2.254;2023-07-09T14:42:13;29.80;50.04
75961;SHT30;64644;48.914;2.254;2023-07-09T14:44:40;29.85;50.12
75961;SHT30;64644;48.914;2.254;2023-07-09T14:47:12;29.82;49.76
75961;SHT30;64644;48.914;2.254;2023-07-09T14:49:39;29.75;49.31
75961;SHT30;64644;48.914;2.254;2023-07-09T14:52:08;29.65;49.31
75961;SHT30;64644;48.914;2.254;2023-07-09T14:54:35;29.59;49.50
75961;SHT30;64644;48.914;2.254;2023-07-09T14:57:00;29.57;49.53
75961;SHT30;64644;48.914;2.254;2023-07-09T14:59:26;29.52;49.69
75961;SHT30;64644;48.914;2.254;2023-07-09T15:01:52;29.51;49.92
75961;SHT30;64644;48.914;2.254;2023-07-09T15:06:51;29.54;50.35
75961;SHT30;64644;48.914;2.254;2023-07-09T15:09:20;29.51;49.74
75961;SHT30;64644;48.914;2.254;2023-07-09T15:11:48;29.51;49.40
75961;SHT30;64644;48.914;2.254;2023-07-09T15:14:14;29.44;49.48
75961;SHT30;64644;48.914;2.254;2023-07-09T15:16:40;29.41;50.56
75961;SHT30;64644;48.914;2.254;2023-07-09T15:19:16;29.39;51.03
75961;SHT30;64644;48.914;2.254;2023-07-09T15:21:42;29.37;51.13
75961;SHT30;64644;48.914;2.254;2023-07-09T15:24:22;29.32;50.69
75961;SHT30;64644;48.914;2.254;2023-07-09T15:26:52;29.27;51.21
75961;SHT30;64644;48.914;2.254;2023-07-09T15:29:18;29.20;51.41
75961;SHT30;64644;48.914;2.254;2023-07-09T15:31:44;29.13;50.82
75961;SHT30;64644;48.914;2.254;2023-07-09T15:34:09;29.07;51.36
75961;SHT30;64644;48.914;2.254;2023-07-09T15:36:35;29.03;51.70
75961;SHT30;64644;48.914;2.254;2023-07-09T15:39:00;29.04;52.04
75961;SHT30;64644;48.914;2.254;2023-07-09T15:41:26;29.00;52.11
75961;SHT30;64644;48.914;2.254;2023-07-09T15:43:51;29.04;52.10
75961;SHT30;64644;48.914;2.254;2023-07-09T15:46:19;29.08;51.99
75961;SHT30;64644;48.914;2.254;2023-07-09T15:48:46;29.06;52.13
75961;SHT30;64644;48.914;2.254;2023-07-09T15:51:11;29.07;51.91
75961;SHT30;64644;48.914;2.254;2023-07-09T15:53:37;29.07;51.93
75961;SHT30;64644;48.914;2.254;2023-07-09T15:56:11;29.04;52.11
75961;SHT30;64644;48.914;2.254;2023-07-09T15:58:39;29.03;52.47
75961;SHT30;64644;48.914;2.254;2023-07-09T16:01:07;29.03;52.92
75961;SHT30;64644;48.914;2.254;2023-07-09T16:03:33;29.03;52.91
75961;SHT30;64644;48.914;2.254;2023-07-09T16:05:58;29.00;53.05
75961;SHT30;64644;48.914;2.254;2023-07-09T16:08:23;28.97;53.03
75961;SHT30;64644;48.914;2.254;2023-07-09T16:10:49;28.92;52.91
75961;SHT30;64644;48.914;2.254;2023-07-09T16:13:19;28.97;53.00
75961;SHT30;64644;48.914;2.254;2023-07-09T16:15:47;28.96;52.67